Time;durP1;ratioP1;P1;durP2;ratioP2;P2;SDS_P1;SDS_P2;PMS_P1;PMS_P2;Temp;Humidity;BMP_temperature;BMP_pressure;BME280_temperature;BME280_humidity;BME280_pressure;Samples;Min_cycle;Max_cycle;Signal;HPM_P1;HPM_P2
2023/04/19 00:01:03;;;;;;;24.63;22.33;;;8.20;99.90;;;;;;5078810;28;20039;-76
2023/04/19 00:03:32;;;;;;;25.70;23.40;;;8.30;99.90;;;;;;5084033;28;20384;-77
2023/04/19 00:05:58;;;;;;;24.42;22.33;;;8.30;99.90;;;;;;5098089;27;20470;-77
2023/04/19 00:08:25;;;;;;;25.85;23.38;;;8.30;99.90;;;;;;5080144;28;20130;-77
2023/04/19 00:10:50;;;;;;;25.17;22.80;;;8.30;99.90;;;;;;5095662;28;20126;-77
2023/04/19 00:13:16;;;;;;;25.67;23.13;;;8.20;99.90;;;;;;5077388;28;20126;-77
2023/04/19 00:15:42;;;;;;;25.83;23.42;;;8.20;99.90;;;;;;5080831;28;20046;-77
2023/04/19 00:18:07;;;;;;;23.52;21.42;;;8.20;99.90;;;;;;5086431;27;20035;-77
2023/04/19 00:20:37;;;;;;;24.20;22.10;;;8.20;99.90;;;;;;5079088;28;20040;-77
2023/04/19 00:23:06;;;;;;;24.63;22.23;;;8.20;99.90;;;;;;5113322;28;20139;-77
2023/04/19 00:25:33;;;;;;;25.40;23.00;;;8.20;99.90;;;;;;5091977;28;20126;-77
2023/04/19 00:27:59;;;;;;;25.80;23.30;;;8.20;99.90;;;;;;5087616;28;20054;-77
2023/04/19 00:30:27;;;;;;;25.35;23.08;;;8.20;99.90;;;;;;5097664;27;20035;-77
2023/04/19 00:32:53;;;;;;;25.83;23.27;;;8.20;99.90;;;;;;5090122;27;20054;-76
2023/04/19 00:35:18;;;;;;;25.88;23.40;;;8.10;99.90;;;;;;5075350;28;20407;-77
2023/04/19 00:37:44;;;;;;;25.15;22.75;;;8.10;99.90;;;;;;5085404;27;20031;-77
2023/04/19 00:40:10;;;;;;;25.35;22.95;;;8.00;99.90;;;;;;5079829;28;20048;-76
2023/04/19 00:42:36;;;;;;;24.63;22.33;;;8.00;99.90;;;;;;5077485;28;20040;-77
2023/04/19 00:45:02;;;;;;;25.40;23.02;;;8.00;99.90;;;;;;5081121;27;20035;-78
2023/04/19 00:47:29;;;;;;;25.70;23.33;;;7.90;99.90;;;;;;5081586;27;20031;-78
2023/04/19 00:49:54;;;;;;;26.38;24.02;;;7.90;99.90;;;;;;5082224;28;20046;-77
2023/04/19 00:52:22;;;;;;;25.10;22.88;;;7.90;99.90;;;;;;5104675;28;20453;-77
2023/04/19 00:54:47;;;;;;;25.13;22.75;;;7.90;99.90;;;;;;5081831;27;20161;-77
2023/04/19 00:57:15;;;;;;;24.95;22.65;;;7.90;99.90;;;;;;5087797;27;20538;-77
2023/04/19 00:59:41;;;;;;;25.10;22.65;;;7.90;99.90;;;;;;5091720;27;20039;-77
2023/04/19 01:02:08;;;;;;;25.10;22.88;;;7.90;99.90;;;;;;5098240;27;20038;-77
2023/04/19 01:04:33;;;;;;;23.65;21.58;;;7.90;99.90;;;;;;5096036;28;20040;-77
2023/04/19 01:07:00;;;;;;;24.65;22.25;;;8.00;99.90;;;;;;5076460;28;20035;-77
2023/04/19 01:09:26;;;;;;;22.83;20.75;;;8.00;99.90;;;;;;5069597;28;20094;-77
2023/04/19 01:11:51;;;;;;;23.15;21.02;;;8.00;99.90;;;;;;5084212;28;20064;-77
2023/04/19 01:14:17;;;;;;;22.27;20.17;;;8.00;99.90;;;;;;5071776;28;20467;-77
2023/04/19 01:16:44;;;;;;;22.13;20.13;;;8.00;99.90;;;;;;5102412;28;20040;-77
2023/04/19 01:19:12;;;;;;;21.40;19.30;;;8.10;99.90;;;;;;5088074;27;20230;-76
2023/04/19 01:21:39;;;;;;;21.25;19.23;;;8.10;99.90;;;;;;5097717;27;20589;-77
2023/04/19 01:24:05;;;;;;;22.10;19.98;;;8.10;99.90;;;;;;5092596;27;20080;-77
2023/04/19 01:26:30;;;;;;;20.38;18.45;;;8.20;99.90;;;;;;5091039;28;20040;-77
2023/04/19 01:28:56;;;;;;;20.85;18.95;;;8.20;99.90;;;;;;5106199;27;20042;-77
2023/04/19 01:31:22;;;;;;;19.55;17.80;;;8.20;99.90;;;;;;5097624;27;20047;-77
2023/04/19 01:33:47;;;;;;;20.17;18.20;;;8.20;99.90;;;;;;5109106;28;20052;-77
2023/04/19 01:36:15;;;;;;;19.27;17.48;;;8.30;99.90;;;;;;5079035;27;20050;-77
2023/04/19 01:38:41;;;;;;;19.15;17.35;;;8.30;99.90;;;;;;5114412;27;20398;-76
2023/04/19 01:41:06;;;;;;;19.67;17.40;;;8.30;99.90;;;;;;5114179;27;20047;-77
2023/04/19 01:43:32;;;;;;;18.63;16.83;;;8.30;99.90;;;;;;5113142;28;20042;-77
2023/04/19 01:45:58;;;;;;;17.95;16.25;;;8.30;99.90;;;;;;5076020;28;20039;-78
2023/04/19 01:48:23;;;;;;;18.77;16.98;;;8.30;99.90;;;;;;5086614;28;20039;-77
2023/04/19 01:50:49;;;;;;;18.10;16.20;;;8.30;99.90;;;;;;5082059;28;20432;-77
2023/04/19 01:53:15;;;;;;;16.65;15.00;;;8.30;99.90;;;;;;5089011;28;20039;-77
2023/04/19 01:55:41;;;;;;;17.48;15.77;;;8.40;99.90;;;;;;5076075;28;20398;-77
2023/04/19 01:58:07;;;;;;;17.77;16.13;;;8.40;99.90;;;;;;5098608;28;20210;-77
2023/04/19 02:00:32;;;;;;;15.90;14.30;;;8.30;99.90;;;;;;5091696;28;20047;-77
2023/04/19 02:02:58;;;;;;;16.33;14.82;;;8.40;99.90;;;;;;5109967;28;20522;-77
2023/04/19 02:05:23;;;;;;;16.48;14.88;;;8.30;99.90;;;;;;5098700;28;20092;-77
2023/04/19 02:07:52;;;;;;;15.50;14.18;;;8.40;99.90;;;;;;5086128;28;20403;-77
2023/04/19 02:10:17;;;;;;;15.02;13.63;;;8.30;99.90;;;;;;5101712;28;20035;-77
2023/04/19 02:12:43;;;;;;;15.45;14.05;;;8.40;99.90;;;;;;5085531;28;20146;-77
2023/04/19 02:15:09;;;;;;;15.20;13.77;;;8.40;99.90;;;;;;5069072;28;20096;-77
2023/04/19 02:17:35;;;;;;;14.25;12.55;;;8.40;99.90;;;;;;5085530;28;20071;-77
2023/04/19 02:20:00;;;;;;;14.60;13.20;;;8.40;99.90;;;;;;5101879;28;20075;-77
2023/04/19 02:22:26;;;;;;;14.55;13.07;;;8.40;99.90;;;;;;5083107;28;20039;-77
2023/04/19 02:24:52;;;;;;;14.65;13.25;;;8.30;99.90;;;;;;5071234;28;20488;-77
2023/04/19 02:27:17;;;;;;;14.50;13.15;;;8.30;99.90;;;;;;5111888;28;20398;-77
2023/04/19 02:29:43;;;;;;;14.40;13.00;;;8.30;99.90;;;;;;5085325;28;20036;-77
2023/04/19 02:32:11;;;;;;;14.63;12.90;;;8.30;99.90;;;;;;5083186;28;20044;-77
2023/04/19 02:34:37;;;;;;;14.25;12.95;;;8.30;99.90;;;;;;5086254;28;20039;-77
2023/04/19 02:37:02;;;;;;;13.75;12.45;;;8.30;99.90;;;;;;5110398;28;20093;-77
2023/04/19 02:39:28;;;;;;;13.38;12.18;;;8.30;99.90;;;;;;5105196;28;20070;-77
2023/04/19 02:41:55;;;;;;;13.00;11.77;;;8.20;99.90;;;;;;5084087;28;20086;-76
2023/04/19 02:44:20;;;;;;;14.85;12.85;;;8.30;99.90;;;;;;5076505;28;20043;-76
2023/04/19 02:46:53;;;;;;;14.25;12.85;;;8.20;99.90;;;;;;5078098;28;20192;-77
2023/04/19 02:49:20;;;;;;;14.10;12.68;;;8.20;99.90;;;;;;5113348;27;20085;-77
2023/04/19 02:51:46;;;;;;;13.98;12.57;;;8.20;99.90;;;;;;5074058;27;20495;-77
2023/04/19 02:54:15;;;;;;;14.43;12.98;;;8.20;99.90;;;;;;5089971;27;20046;-77
2023/04/19 02:56:40;;;;;;;14.45;12.93;;;8.10;99.90;;;;;;5125043;27;20078;-77
2023/04/19 02:59:06;;;;;;;13.82;12.52;;;8.10;99.90;;;;;;5132816;27;20112;-77
2023/04/19 03:01:32;;;;;;;13.68;12.32;;;8.10;99.90;;;;;;5077756;27;20518;-77
2023/04/19 03:03:57;;;;;;;13.35;12.05;;;8.00;99.90;;;;;;5091811;28;20036;-77
2023/04/19 03:06:23;;;;;;;13.48;12.18;;;8.10;99.90;;;;;;5093907;27;20047;-77
2023/04/19 03:08:49;;;;;;;14.27;12.77;;;8.00;99.90;;;;;;5095033;27;20035;-77
2023/04/19 03:11:16;;;;;;;13.05;11.80;;;8.00;99.90;;;;;;5098288;28;20071;-77
2023/04/19 03:13:41;;;;;;;14.15;12.13;;;7.90;99.90;;;;;;5098059;27;20031;-77
2023/04/19 03:16:07;;;;;;;12.82;11.52;;;7.90;99.90;;;;;;5082496;27;20096;-77
2023/04/19 03:18:33;;;;;;;13.07;11.80;;;7.90;99.90;;;;;;5108363;27;20071;-77
2023/04/19 03:20:59;;;;;;;12.35;11.25;;;7.80;99.90;;;;;;5077057;28;20071;-77
2023/04/19 03:23:26;;;;;;;12.85;11.65;;;7.80;99.90;;;;;;5082375;28;20373;-77
2023/04/19 03:25:55;;;;;;;12.85;11.57;;;7.70;99.90;;;;;;5111043;27;20039;-76
2023/04/19 03:28:22;;;;;;;13.07;11.88;;;7.70;99.90;;;;;;5091665;27;20126;-77
2023/04/19 03:30:47;;;;;;;12.82;11.52;;;7.60;99.90;;;;;;5100412;28;20032;-77
2023/04/19 03:33:13;;;;;;;13.70;12.18;;;7.60;99.90;;;;;;5103666;27;20042;-77
2023/04/19 03:35:39;;;;;;;13.32;12.02;;;7.50;99.90;;;;;;5122708;27;20395;-77
2023/04/19 03:38:04;;;;;;;14.80;13.40;;;7.40;99.90;;;;;;5090900;28;20122;-76
2023/04/19 03:40:32;;;;;;;13.27;12.05;;;7.40;99.90;;;;;;5080448;28;20040;-77
2023/04/19 03:42:58;;;;;;;14.40;13.00;;;7.40;99.90;;;;;;5079235;28;20052;-77
2023/04/19 03:45:29;;;;;;;14.32;12.73;;;7.30;99.90;;;;;;5086943;28;20073;-77
2023/04/19 03:47:54;;;;;;;14.27;12.98;;;7.20;99.90;;;;;;5096213;28;20154;-77
2023/04/19 03:50:20;;;;;;;15.60;14.00;;;7.20;99.90;;;;;;5091680;28;20178;-76
2023/04/19 03:52:45;;;;;;;17.85;14.70;;;7.20;99.90;;;;;;5071064;28;20043;-76
2023/04/19 03:55:11;;;;;;;15.07;13.48;;;7.30;99.90;;;;;;5085859;28;20035;-76
2023/04/19 03:57:37;;;;;;;16.52;14.95;;;7.10;99.90;;;;;;5075618;28;20032;-76
2023/04/19 04:00:07;;;;;;;16.65;15.00;;;7.00;99.90;;;;;;5060003;28;20050;-76
2023/04/19 04:02:32;;;;;;;16.98;15.27;;;6.90;99.90;;;;;;5087391;28;20046;-77
2023/04/19 04:04:58;;;;;;;15.73;14.23;;;7.00;99.90;;;;;;5086524;27;20051;-76
2023/04/19 04:07:24;;;;;;;16.38;14.73;;;6.80;99.90;;;;;;5094695;28;20119;-77
2023/04/19 04:09:50;;;;;;;16.30;14.70;;;6.70;99.90;;;;;;5091837;27;20483;-77
2023/04/19 04:12:15;;;;;;;15.88;14.38;;;6.70;99.90;;;;;;5085846;28;20047;-76
2023/04/19 04:14:41;;;;;;;17.27;15.68;;;6.60;99.90;;;;;;5086611;28;20032;-76
2023/04/19 04:17:07;;;;;;;16.30;14.70;;;6.60;99.90;;;;;;5108604;27;20035;-76
2023/04/19 04:19:32;;;;;;;16.77;15.20;;;6.50;99.90;;;;;;5108295;27;20126;-76
2023/04/19 04:21:58;;;;;;;17.35;15.55;;;6.40;99.90;;;;;;5085619;28;20063;-76
2023/04/19 04:24:25;;;;;;;16.73;15.13;;;6.40;99.90;;;;;;5076727;28;20039;-76
2023/04/19 04:26:50;;;;;;;16.98;15.30;;;6.30;99.90;;;;;;5092506;28;20075;-76
2023/04/19 04:29:16;;;;;;;16.95;15.35;;;6.30;99.90;;;;;;5094957;28;20081;-76
2023/04/19 04:31:42;;;;;;;16.05;14.38;;;6.20;99.90;;;;;;5076308;27;20075;-76
2023/04/19 04:34:08;;;;;;;17.35;15.15;;;6.30;99.90;;;;;;5079506;28;20487;-76
2023/04/19 04:36:36;;;;;;;17.35;15.60;;;6.20;99.90;;;;;;5085520;28;20024;-76
2023/04/19 04:39:02;;;;;;;16.85;15.25;;;6.10;99.90;;;;;;5111985;28;20042;-77
2023/04/19 04:41:31;;;;;;;15.98;14.48;;;6.00;99.90;;;;;;5089055;27;20035;-77
2023/04/19 04:44:00;;;;;;;16.25;14.65;;;6.00;99.90;;;;;;5080005;28;20480;-77
2023/04/19 04:46:26;;;;;;;15.23;13.73;;;6.00;99.90;;;;;;5091735;27;20532;-77
2023/04/19 04:48:52;;;;;;;15.18;13.80;;;6.10;99.90;;;;;;5106534;27;20114;-77
2023/04/19 04:51:18;;;;;;;14.90;13.40;;;5.90;99.90;;;;;;5105186;28;20055;-77
2023/04/19 04:53:44;;;;;;;14.88;13.40;;;5.90;99.90;;;;;;5077695;28;20042;-76
2023/04/19 04:56:09;;;;;;;14.27;12.77;;;5.90;99.90;;;;;;5094915;27;20039;-76
2023/04/19 04:58:35;;;;;;;14.05;12.75;;;5.90;99.90;;;;;;5089329;27;20407;-77
2023/04/19 05:01:01;;;;;;;15.02;13.52;;;5.90;99.90;;;;;;5090789;28;20043;-76
2023/04/19 05:03:26;;;;;;;13.73;12.43;;;5.90;99.90;;;;;;5079725;27;20039;-76
2023/04/19 05:05:52;;;;;;;13.82;12.52;;;5.90;99.90;;;;;;5083382;28;20047;-76
2023/04/19 05:08:18;;;;;;;13.90;12.50;;;6.00;99.90;;;;;;5057674;28;20040;-76
2023/04/19 05:10:43;;;;;;;13.10;11.80;;;5.90;99.90;;;;;;5069884;27;20042;-76
2023/04/19 05:13:09;;;;;;;13.27;11.82;;;6.00;99.90;;;;;;5091019;28;20032;-76
2023/04/19 05:15:35;;;;;;;13.25;11.90;;;6.00;99.90;;;;;;5085587;28;20050;-76
2023/04/19 05:18:01;;;;;;;13.82;12.43;;;6.00;99.90;;;;;;5094470;28;20040;-76
2023/04/19 05:20:29;;;;;;;13.95;12.20;;;6.00;99.90;;;;;;5097934;27;20047;-76
2023/04/19 05:22:59;;;;;;;13.10;11.82;;;6.00;99.90;;;;;;5070936;28;20058;-76
2023/04/19 05:25:24;;;;;;;12.32;11.02;;;6.00;99.90;;;;;;5078311;28;20036;-76
2023/04/19 05:27:50;;;;;;;12.77;11.48;;;6.00;99.90;;;;;;5057319;28;20039;-76
2023/04/19 05:30:16;;;;;;;12.80;11.50;;;6.00;99.90;;;;;;5077523;27;20035;-76
2023/04/19 05:32:41;;;;;;;13.95;11.43;;;6.10;99.90;;;;;;5092555;27;20530;-76
2023/04/19 05:35:07;;;;;;;12.43;11.23;;;6.10;99.90;;;;;;5081876;28;20071;-76
2023/04/19 05:37:35;;;;;;;13.68;11.48;;;6.10;99.90;;;;;;5073902;28;20377;-77
2023/04/19 05:40:04;;;;;;;12.27;10.93;;;6.10;99.90;;;;;;5119408;27;20546;-77
2023/04/19 05:42:30;;;;;;;14.18;11.70;;;6.20;99.90;;;;;;5093019;28;20084;-76
2023/04/19 05:44:56;;;;;;;12.73;11.13;;;6.20;99.90;;;;;;5084312;28;20046;-76
2023/04/19 05:47:21;;;;;;;12.45;11.15;;;6.10;99.90;;;;;;5075749;28;20123;-77
2023/04/19 05:49:47;;;;;;;11.63;10.48;;;6.20;99.90;;;;;;5071456;28;20403;-77
2023/04/19 05:52:13;;;;;;;12.68;11.38;;;6.30;99.90;;;;;;5090977;28;20039;-76
2023/04/19 05:54:38;;;;;;;11.82;10.68;;;6.30;99.90;;;;;;5066546;28;20486;-76
2023/04/19 05:57:04;;;;;;;11.00;9.80;;;6.30;99.90;;;;;;5086744;28;20048;-76
2023/04/19 05:59:30;;;;;;;12.45;10.98;;;6.30;99.90;;;;;;5088150;28;20119;-76
2023/04/19 06:01:55;;;;;;;10.43;9.43;;;6.40;99.90;;;;;;5089088;28;20561;-76
2023/04/19 06:04:21;;;;;;;10.90;9.65;;;6.40;99.90;;;;;;5085967;28;20047;-76
2023/04/19 06:06:46;;;;;;;10.60;9.60;;;6.40;99.90;;;;;;5085628;28;20027;-76
2023/04/19 06:09:16;;;;;;;10.27;9.27;;;6.60;99.90;;;;;;5084883;28;20036;-77
2023/04/19 06:11:42;;;;;;;11.18;9.65;;;6.60;99.90;;;;;;5084549;28;20040;-76
2023/04/19 06:14:12;;;;;;;10.30;9.20;;;6.70;99.90;;;;;;5070535;28;20425;-76
2023/04/19 06:16:38;;;;;;;9.13;8.23;;;6.70;99.90;;;;;;5074691;28;20059;-76
2023/04/19 06:19:04;;;;;;;10.68;8.32;;;6.80;99.90;;;;;;5074762;28;20039;-76
2023/04/19 06:21:35;;;;;;;9.18;8.27;;;6.90;99.90;;;;;;5090889;28;20077;-78
2023/04/19 06:24:01;;;;;;;10.40;8.43;;;6.90;99.90;;;;;;5087552;28;20036;-75
2023/04/19 06:26:29;;;;;;;8.68;7.72;;;6.90;99.90;;;;;;5093099;28;20035;-76
2023/04/19 06:28:55;;;;;;;8.65;7.78;;;7.00;99.90;;;;;;5097885;28;20491;-77
2023/04/19 06:31:21;;;;;;;9.05;8.02;;;7.10;99.90;;;;;;5090430;28;20151;-77
2023/04/19 06:33:47;;;;;;;8.55;6.63;;;7.20;99.90;;;;;;5085274;27;20051;-77
2023/04/19 06:36:12;;;;;;;9.40;7.40;;;7.30;99.90;;;;;;5079897;28;20384;-77
2023/04/19 06:38:45;;;;;;;7.93;7.13;;;7.40;99.90;;;;;;5078748;28;20042;-77
2023/04/19 06:41:16;;;;;;;8.30;7.32;;;7.50;99.90;;;;;;5081914;27;20036;-78
2023/04/19 06:43:58;;;;;;;8.55;7.57;;;7.60;99.90;;;;;;5078457;28;20103;-77
2023/04/19 06:46:27;;;;;;;;;;;7.70;99.90;;;;;;5076740;28;20043;-77
2023/04/19 06:48:55;;;;;;;7.05;6.32;;;7.80;99.90;;;;;;5078521;28;19916;-77
2023/04/19 06:51:21;;;;;;;7.93;6.93;;;7.80;99.90;;;;;;5085098;28;20044;-78
2023/04/19 06:53:53;;;;;;;7.40;6.60;;;7.90;99.90;;;;;;5091614;28;20044;-77
2023/04/19 06:56:58;;;;;;;6.75;5.93;;;7.90;99.90;;;;;;5079542;28;20110;-78
2023/04/19 06:59:27;;;;;;;9.00;6.10;;;8.10;99.90;;;;;;5063668;28;20039;-78
2023/04/19 07:01:58;;;;;;;6.93;6.13;;;8.20;99.90;;;;;;5055828;28;20076;-77
2023/04/19 07:04:26;;;;;;;7.90;6.32;;;8.30;99.90;;;;;;5069408;28;20051;-75
2023/04/19 07:06:52;;;;;;;6.78;5.68;;;8.30;99.90;;;;;;5068202;28;20040;-75
2023/04/19 07:09:18;;;;;;;7.95;6.43;;;8.40;97.80;;;;;;5059877;28;20032;-76
2023/04/19 07:11:43;;;;;;;7.70;6.15;;;8.40;99.90;;;;;;5074917;28;20044;-75
2023/04/19 07:14:09;;;;;;;6.07;5.00;;;8.50;97.20;;;;;;5064320;28;20519;-75
2023/04/19 07:16:35;;;;;;;5.95;5.35;;;8.50;92.00;;;;;;5069059;28;20086;-75
2023/04/19 07:19:03;;;;;;;6.22;5.28;;;8.60;94.10;;;;;;5068629;28;20044;-75
2023/04/19 07:21:32;;;;;;;8.98;5.93;;;8.70;92.20;;;;;;5060928;28;20047;-75
2023/04/19 07:23:58;;;;;;;6.40;5.38;;;8.70;94.00;;;;;;5063056;28;20153;-76
2023/04/19 07:26:24;;;;;;;6.18;4.82;;;8.80;92.10;;;;;;5058382;28;20036;-75
2023/04/19 07:28:49;;;;;;;6.82;4.28;;;8.90;88.20;;;;;;5074869;28;20047;-76
2023/04/19 07:31:19;;;;;;;6.15;4.45;;;9.00;81.00;;;;;;5075278;28;20055;-77
2023/04/19 07:33:45;;;;;;;4.55;3.83;;;9.00;81.90;;;;;;5059968;28;20564;-78
2023/04/19 07:36:14;;;;;;;4.88;3.90;;;9.10;78.70;;;;;;5060242;28;20373;-78
2023/04/19 07:38:42;;;;;;;4.30;3.85;;;9.20;77.80;;;;;;5055029;28;20043;-77
2023/04/19 07:41:10;;;;;;;4.30;3.83;;;9.20;78.00;;;;;;5084163;28;20044;-78
2023/04/19 07:43:40;;;;;;;6.63;3.88;;;9.20;79.20;;;;;;5060050;28;20050;-78
2023/04/19 07:46:14;;;;;;;5.20;3.30;;;9.30;79.30;;;;;;5056520;28;20488;-78
2023/04/19 07:48:40;;;;;;;4.40;3.30;;;9.50;75.70;;;;;;5075316;28;20055;-77
2023/04/19 07:51:16;;;;;;;3.75;3.25;;;9.40;75.10;;;;;;5051638;28;20032;-78
2023/04/19 07:53:45;;;;;;;3.55;3.05;;;9.50;74.90;;;;;;5076721;28;20109;-78
2023/04/19 07:56:11;;;;;;;4.13;3.05;;;9.60;74.20;;;;;;5081221;28;20047;-77
2023/04/19 07:58:38;;;;;;;5.30;3.15;;;9.60;71.40;;;;;;5057739;28;20404;-77
2023/04/19 08:01:04;;;;;;;4.13;2.92;;;9.60;71.00;;;;;;5059786;28;20045;-77
2023/04/19 08:03:30;;;;;;;5.00;3.00;;;9.70;71.70;;;;;;5045178;28;20519;-77
2023/04/19 08:05:56;;;;;;;3.88;2.70;;;9.80;70.40;;;;;;5065702;28;20484;-77
2023/04/19 08:08:24;;;;;;;4.65;2.75;;;9.90;69.60;;;;;;5070753;28;20098;-77
2023/04/19 08:10:53;;;;;;;3.90;2.90;;;10.00;70.40;;;;;;5071379;28;20051;-77
2023/04/19 08:13:19;;;;;;;5.03;2.80;;;10.00;69.50;;;;;;5059509;28;20051;-77
2023/04/19 08:15:48;;;;;;;4.13;3.10;;;10.10;71.40;;;;;;5063204;28;20043;-77
2023/04/19 08:18:13;;;;;;;3.63;2.97;;;10.20;72.90;;;;;;5079361;28;20459;-78
2023/04/19 08:20:41;;;;;;;2.63;2.33;;;10.30;72.70;;;;;;5071003;28;20079;-77
2023/04/19 08:23:07;;;;;;;2.92;2.60;;;10.50;69.40;;;;;;5066175;28;20036;-77
2023/04/19 08:25:33;;;;;;;3.42;2.60;;;10.50;68.00;;;;;;5064921;28;20118;-78
2023/04/19 08:28:02;;;;;;;3.60;2.63;;;10.60;67.40;;;;;;5075134;28;20736;-77
2023/04/19 08:30:28;;;;;;;4.75;2.67;;;11.30;65.30;;;;;;5049855;28;20071;-79
2023/04/19 08:32:53;;;;;;;3.00;2.40;;;11.90;61.50;;;;;;5049377;28;20044;-78
2023/04/19 08:35:20;;;;;;;3.15;2.50;;;12.40;59.50;;;;;;5071639;28;20040;-78
2023/04/19 08:37:47;;;;;;;3.25;2.70;;;12.60;59.40;;;;;;5075260;28;20020;-78
2023/04/19 08:40:19;;;;;;;4.55;2.70;;;13.00;59.70;;;;;;5062765;28;20044;-77
2023/04/19 08:42:50;;;;;;;3.85;2.75;;;13.30;59.20;;;;;;5057337;28;20032;-79
2023/04/19 08:45:26;;;;;;;4.57;3.17;;;13.60;58.60;;;;;;5054767;28;20123;-79
2023/04/19 08:47:56;;;;;;;4.30;3.17;;;13.80;56.40;;;;;;5047419;28;20124;-79
2023/04/19 08:50:22;;;;;;;4.35;2.88;;;13.80;56.80;;;;;;5049612;28;20107;-79
2023/04/19 08:52:59;;;;;;;3.65;3.30;;;13.90;56.00;;;;;;5056108;28;20122;-79
2023/04/19 08:55:27;;;;;;;5.15;3.20;;;13.80;56.30;;;;;;5070843;28;20077;-78
2023/04/19 08:57:58;;;;;;;3.53;3.15;;;13.90;56.10;;;;;;5050754;28;20044;-79
2023/04/19 09:00:39;;;;;;;;;;;;;;;;;;;;;
2023/04/19 09:03:46;;;;;;;;;;;14.10;53.50;;;;;;5089692;28;20043;-80
2023/04/19 09:06:23;;;;;;;4.63;3.20;;;14.20;54.20;;;;;;5074716;28;19962;-81
2023/04/19 09:09:30;;;;;;;5.03;3.72;;;14.40;55.70;;;;;;5065027;28;20047;-81
2023/04/19 09:11:59;;;;;;;4.93;3.53;;;14.70;53.30;;;;;;5051269;28;20048;-79
2023/04/19 09:14:38;;;;;;;4.00;3.60;;;14.80;53.70;;;;;;5057021;28;20047;-80
2023/04/19 09:17:27;;;;;;;5.15;3.70;;;14.90;52.20;;;;;;5057543;28;20106;-80
2023/04/19 09:20:25;;;;;;;5.80;3.30;;;14.80;50.80;;;;;;5053199;28;20058;-79
2023/04/19 09:23:48;;;;;;;4.78;3.78;;;14.70;52.00;;;;;;5054936;28;20039;-79
2023/04/19 09:26:16;;;;;;;4.72;3.60;;;14.80;51.20;;;;;;5032596;28;20041;-78
2023/04/19 09:29:04;;;;;;;5.15;3.50;;;14.80;49.50;;;;;;5070132;28;20032;-77
2023/04/19 09:31:50;;;;;;;6.45;3.70;;;14.70;49.10;;;;;;5042671;28;20048;-79
2023/04/19 09:34:49;;;;;;;4.70;3.60;;;14.70;50.00;;;;;;5070330;28;20035;-79
2023/04/19 09:37:21;;;;;;;6.75;3.90;;;14.70;48.70;;;;;;5057323;28;20152;-79
2023/04/19 09:40:07;;;;;;;;;;;;;;;;;;;;;
2023/04/19 09:43:12;;;;;;;4.18;3.22;;;14.90;48.70;;;;;;5071019;28;20103;-79
2023/04/19 09:45:47;;;;;;;5.53;3.17;;;15.00;47.30;;;;;;5050623;28;20048;-78
2023/04/19 09:48:31;;;;;;;6.18;3.55;;;15.00;47.80;;;;;;5074193;28;20032;-79
2023/04/19 09:51:16;;;;;;;;;;;;;;;;;;;;;
2023/04/19 09:57:11;;;;;;;3.67;3.03;;;15.20;46.40;;;;;;5064308;28;20051;-78
2023/04/19 10:00:13;;;;;;;5.30;3.38;;;15.40;46.00;;;;;;5064803;28;20040;-79
2023/04/19 10:03:09;;;;;;;4.47;3.17;;;15.40;46.50;;;;;;5056016;28;20049;-76
2023/04/19 10:05:40;;;;;;;6.10;2.72;;;15.60;47.20;;;;;;5081191;28;20036;-75
2023/04/19 10:08:11;;;;;;;4.63;3.10;;;15.70;45.10;;;;;;5066776;28;20044;-75
2023/04/19 10:10:38;;;;;;;5.18;3.22;;;15.60;44.00;;;;;;5040855;28;20096;-75
2023/04/19 10:13:07;;;;;;;4.60;3.05;;;15.70;43.90;;;;;;5056290;28;20043;-76
2023/04/19 10:15:37;;;;;;;4.22;2.70;;;15.60;46.00;;;;;;5060821;28;20640;-76
2023/04/19 10:18:04;;;;;;;3.10;2.80;;;15.70;45.40;;;;;;5102985;28;20095;-76
2023/04/19 10:20:38;;;;;;;4.30;3.03;;;15.70;46.60;;;;;;5074462;28;20036;-76
2023/04/19 10:23:08;;;;;;;5.43;2.88;;;16.00;45.30;;;;;;5078414;28;20033;-76
2023/04/19 10:25:36;;;;;;;5.43;3.35;;;16.00;44.30;;;;;;5072496;28;20036;-74
2023/04/19 10:28:02;;;;;;;4.13;2.90;;;15.90;44.60;;;;;;5067719;28;20044;-78
2023/04/19 10:30:27;;;;;;;5.35;3.17;;;15.80;45.50;;;;;;5084309;28;20032;-76
2023/04/19 10:32:57;;;;;;;5.50;3.00;;;15.70;46.20;;;;;;5079048;28;20044;-76
2023/04/19 10:35:32;;;;;;;4.18;3.00;;;15.70;47.00;;;;;;5085299;28;20039;-77
2023/04/19 10:38:04;;;;;;;2.90;2.60;;;16.00;46.40;;;;;;5067650;28;20046;-77
2023/04/19 10:40:59;;;;;;;2.90;2.60;;;16.00;46.10;;;;;;5070044;28;20048;-77
2023/04/19 10:43:35;;;;;;;3.38;2.90;;;16.00;45.60;;;;;;5059430;28;20135;-77
2023/04/19 10:46:05;;;;;;;3.47;2.60;;;15.90;45.90;;;;;;5071342;28;20050;-77
2023/04/19 10:48:32;;;;;;;3.25;2.60;;;15.90;46.50;;;;;;5083553;28;20052;-77
2023/04/19 10:51:13;;;;;;;3.00;2.50;;;16.00;45.30;;;;;;5069281;28;20510;-77
2023/04/19 10:53:48;;;;;;;4.32;2.85;;;16.00;45.50;;;;;;5065850;28;20104;-77
2023/04/19 10:56:19;;;;;;;2.55;2.30;;;16.10;44.80;;;;;;5072407;28;20050;-77
2023/04/19 10:59:06;;;;;;;3.25;2.60;;;16.10;45.30;;;;;;5079382;28;20036;-77
2023/04/19 11:01:38;;;;;;;2.80;2.50;;;16.30;46.10;;;;;;5056325;28;20040;-77
2023/04/19 11:04:11;;;;;;;3.13;2.70;;;16.30;46.70;;;;;;5087026;28;20040;-76
2023/04/19 11:06:56;;;;;;;4.40;3.00;;;16.60;45.60;;;;;;5059628;28;20040;-77
2023/04/19 11:09:29;;;;;;;4.18;2.42;;;16.60;45.60;;;;;;5058141;28;20576;-77
2023/04/19 11:12:14;;;;;;;3.08;2.60;;;16.60;43.90;;;;;;5094885;28;20036;-76
2023/04/19 11:14:51;;;;;;;2.90;2.47;;;16.60;44.10;;;;;;5062451;28;20036;-77
2023/04/19 11:17:33;;;;;;;3.90;2.47;;;16.60;45.40;;;;;;5079496;28;20035;-77
2023/04/19 11:20:18;;;;;;;3.55;2.40;;;16.70;45.30;;;;;;5073931;28;20521;-79
2023/04/19 11:22:49;;;;;;;3.65;2.60;;;16.90;42.60;;;;;;5059819;28;20040;-76
2023/04/19 11:25:20;;;;;;;3.20;2.60;;;16.80;42.80;;;;;;5081117;28;20082;-77
2023/04/19 11:27:48;;;;;;;4.00;2.35;;;16.80;42.80;;;;;;5063020;28;20392;-77
2023/04/19 11:30:20;;;;;;;3.88;2.53;;;16.80;44.30;;;;;;5076586;28;20038;-77
2023/04/19 11:32:53;;;;;;;4.35;2.78;;;17.10;46.40;;;;;;5112526;28;20108;-78
2023/04/19 11:35:23;;;;;;;4.00;2.60;;;17.40;46.40;;;;;;5083382;28;20084;-78
2023/04/19 11:37:52;;;;;;;4.53;2.75;;;17.50;45.20;;;;;;5100629;28;20043;-78
2023/04/19 11:40:20;;;;;;;3.58;2.35;;;17.60;45.50;;;;;;5089083;28;20518;-78
2023/04/19 11:42:52;;;;;;;3.50;2.63;;;17.80;45.10;;;;;;5088499;28;20040;-77
2023/04/19 11:45:30;;;;;;;3.17;2.63;;;17.90;43.80;;;;;;5093001;28;20054;-78
2023/04/19 11:47:57;;;;;;;3.47;2.60;;;17.80;43.50;;;;;;5053312;28;20044;-78
2023/04/19 11:50:40;;;;;;;3.70;2.75;;;17.60;43.20;;;;;;5090550;28;20074;-78
2023/04/19 11:53:20;;;;;;;5.47;2.67;;;17.40;44.00;;;;;;5066872;28;20059;-78
2023/04/19 11:55:51;;;;;;;3.85;2.88;;;17.30;44.50;;;;;;5058193;28;20071;-77
2023/04/19 11:58:32;;;;;;;4.32;2.50;;;17.30;44.20;;;;;;5063672;28;20033;-77
2023/04/19 12:01:11;;;;;;;3.15;2.50;;;17.30;45.40;;;;;;5055303;28;20072;-77
2023/04/19 12:03:48;;;;;;;3.63;2.30;;;17.40;44.80;;;;;;5087857;28;20040;-78
2023/04/19 12:06:32;;;;;;;3.63;2.70;;;17.50;44.10;;;;;;5076239;28;20063;-77
2023/04/19 12:09:09;;;;;;;3.78;2.40;;;17.40;44.70;;;;;;5056190;28;20123;-78
2023/04/19 12:11:45;;;;;;;3.38;2.60;;;17.60;46.20;;;;;;5068079;28;20051;-78
2023/04/19 12:14:15;;;;;;;3.55;2.65;;;17.90;46.70;;;;;;5073795;28;20073;-78
2023/04/19 12:16:48;;;;;;;3.25;2.70;;;18.00;45.50;;;;;;5084729;28;20039;-78
2023/04/19 12:19:39;;;;;;;4.50;3.00;;;17.90;45.70;;;;;;5074503;28;20045;-77
2023/04/19 12:22:19;;;;;;;3.60;2.95;;;17.70;46.00;;;;;;5077802;28;20042;-77
2023/04/19 12:25:13;;;;;;;4.00;3.08;;;17.70;44.30;;;;;;5066692;28;20419;-76
2023/04/19 12:27:39;;;;;;;4.03;2.97;;;17.40;45.60;;;;;;5059332;28;20043;-75
2023/04/19 12:30:06;;;;;;;4.00;2.85;;;17.70;46.50;;;;;;5073264;28;20131;-75
2023/04/19 12:32:42;;;;;;;3.78;2.90;;;17.80;45.80;;;;;;5049802;28;20063;-75
2023/04/19 12:35:08;;;;;;;4.07;3.00;;;17.90;45.70;;;;;;5057593;28;20051;-75
2023/04/19 12:37:39;;;;;;;3.75;2.88;;;17.80;45.60;;;;;;5058234;28;20119;-75
2023/04/19 12:40:32;;;;;;;3.83;2.50;;;17.90;46.80;;;;;;5056774;28;20122;-75
2023/04/19 12:43:07;;;;;;;3.97;3.10;;;17.80;45.80;;;;;;5053667;28;20036;-75
2023/04/19 12:45:42;;;;;;;4.43;3.00;;;18.00;47.00;;;;;;5058728;28;20044;-75
2023/04/19 12:48:24;;;;;;;4.30;3.30;;;18.40;46.90;;;;;;5074483;28;20128;-75
2023/04/19 12:50:59;;;;;;;4.63;3.25;;;18.50;46.10;;;;;;5049463;28;20036;-75
2023/04/19 12:53:30;;;;;;;3.67;3.28;;;18.50;45.60;;;;;;5057346;28;20503;-75
2023/04/19 12:56:14;;;;;;;3.65;3.13;;;18.50;46.60;;;;;;5056961;28;20404;-75
2023/04/19 12:58:51;;;;;;;3.67;3.22;;;18.50;46.80;;;;;;5057723;28;20070;-76
2023/04/19 13:01:22;;;;;;;4.20;3.60;;;18.60;46.60;;;;;;5049680;28;20036;-75
2023/04/19 13:03:54;;;;;;;4.07;3.60;;;18.40;45.80;;;;;;5052255;28;20135;-76
2023/04/19 13:06:20;;;;;;;5.50;3.50;;;18.50;47.00;;;;;;5063648;28;20123;-75